sensor_id;sensor_type;location;lat;lon;timestamp;P1;durP1;ratioP1;P2;durP2;ratioP2
63699;SDS011;49845;47.130;142.766;2022-11-15T00:01:18;7.00;;;4.60;;
63699;SDS011;49845;47.130;142.766;2022-11-15T00:03:56;7.10;;;3.60;;
63699;SDS011;49845;47.130;142.766;2022-11-15T00:06:37;7.65;;;4.35;;
63699;SDS011;49845;47.130;142.766;2022-11-15T00:09:22;8.57;;;3.85;;
63699;SDS011;49845;47.130;142.766;2022-11-15T00:12:17;9.65;;;4.07;;
63699;SDS011;49845;47.130;142.766;2022-11-15T00:15:11;6.45;;;3.30;;
63699;SDS011;49845;47.130;142.766;2022-11-15T00:17:55;5.97;;;2.90;;
63699;SDS011;49845;47.130;142.766;2022-11-15T00:20:44;3.28;;;2.38;;
63699;SDS011;49845;47.130;142.766;2022-11-15T00:23:31;7.53;;;4.07;;
63699;SDS011;49845;47.130;142.766;2022-11-15T00:26:13;9.55;;;5.75;;
63699;SDS011;49845;47.130;142.766;2022-11-15T00:28:51;3.85;;;2.72;;
63699;SDS011;49845;47.130;142.766;2022-11-15T00:31:33;6.63;;;3.63;;
63699;SDS011;49845;47.130;142.766;2022-11-15T00:34:27;128.52;;;58.65;;
63699;SDS011;49845;47.130;142.766;2022-11-15T00:37:14;71.60;;;32.45;;
63699;SDS011;49845;47.130;142.766;2022-11-15T00:40:06;9.38;;;5.03;;
63699;SDS011;49845;47.130;142.766;2022-11-15T00:43:07;8.90;;;4.05;;
63699;SDS011;49845;47.130;142.766;2022-11-15T00:45:58;12.18;;;6.40;;
63699;SDS011;49845;47.130;142.766;2022-11-15T00:48:44;8.82;;;4.78;;
63699;SDS011;49845;47.130;142.766;2022-11-15T00:51:42;8.55;;;4.53;;
63699;SDS011;49845;47.130;142.766;2022-11-15T00:54:52;10.40;;;4.70;;
63699;SDS011;49845;47.130;142.766;2022-11-15T00:57:36;8.68;;;3.60;;
63699;SDS011;49845;47.130;142.766;2022-11-15T01:00:32;7.45;;;4.13;;
63699;SDS011;49845;47.130;142.766;2022-11-15T01:03:18;12.68;;;3.58;;
63699;SDS011;49845;47.130;142.766;2022-11-15T01:05:57;10.80;;;4.00;;
63699;SDS011;49845;47.130;142.766;2022-11-15T01:08:49;9.48;;;3.28;;
63699;SDS011;49845;47.130;142.766;2022-11-15T01:11:33;11.40;;;4.22;;
63699;SDS011;49845;47.130;142.766;2022-11-15T01:14:16;11.18;;;4.57;;
63699;SDS011;49845;47.130;142.766;2022-11-15T01:17:03;19.70;;;5.97;;
63699;SDS011;49845;47.130;142.766;2022-11-15T01:19:56;22.83;;;5.30;;
63699;SDS011;49845;47.130;142.766;2022-11-15T01:22:32;23.23;;;6.88;;
63699;SDS011;49845;47.130;142.766;2022-11-15T01:25:20;37.63;;;8.77;;
63699;SDS011;49845;47.130;142.766;2022-11-15T01:28:06;30.02;;;7.75;;
63699;SDS011;49845;47.130;142.766;2022-11-15T01:31:00;32.40;;;7.95;;
63699;SDS011;49845;47.130;142.766;2022-11-15T01:33:50;33.05;;;8.32;;
63699;SDS011;49845;47.130;142.766;2022-11-15T01:36:43;29.63;;;7.32;;
63699;SDS011;49845;47.130;142.766;2022-11-15T01:39:21;23.27;;;7.15;;
63699;SDS011;49845;47.130;142.766;2022-11-15T01:42:00;37.13;;;7.72;;
63699;SDS011;49845;47.130;142.766;2022-11-15T01:45:05;25.55;;;8.05;;
63699;SDS011;49845;47.130;142.766;2022-11-15T01:47:57;26.60;;;7.47;;
63699;SDS011;49845;47.130;142.766;2022-11-15T01:50:50;18.58;;;7.20;;
63699;SDS011;49845;47.130;142.766;2022-11-15T01:53:38;18.08;;;7.47;;
63699;SDS011;49845;47.130;142.766;2022-11-15T01:56:32;30.00;;;6.72;;
63699;SDS011;49845;47.130;142.766;2022-11-15T01:59:27;11.73;;;4.53;;
63699;SDS011;49845;47.130;142.766;2022-11-15T02:02:12;9.93;;;5.07;;
63699;SDS011;49845;47.130;142.766;2022-11-15T02:05:02;13.88;;;5.10;;
63699;SDS011;49845;47.130;142.766;2022-11-15T02:08:13;18.50;;;5.63;;
63699;SDS011;49845;47.130;142.766;2022-11-15T02:10:53;13.95;;;6.18;;
63699;SDS011;49845;47.130;142.766;2022-11-15T02:13:45;21.48;;;6.15;;
63699;SDS011;49845;47.130;142.766;2022-11-15T02:16:25;12.57;;;5.28;;
63699;SDS011;49845;47.130;142.766;2022-11-15T02:19:36;11.45;;;6.45;;
63699;SDS011;49845;47.130;142.766;2022-11-15T02:23:01;11.43;;;5.10;;
63699;SDS011;49845;47.130;142.766;2022-11-15T02:33:35;14.43;;;5.45;;
63699;SDS011;49845;47.130;142.766;2022-11-15T02:36:22;10.55;;;3.30;;
63699;SDS011;49845;47.130;142.766;2022-11-15T02:39:20;11.40;;;5.38;;
63699;SDS011;49845;47.130;142.766;2022-11-15T02:42:11;12.75;;;4.35;;
63699;SDS011;49845;47.130;142.766;2022-11-15T02:45:07;8.75;;;3.05;;
63699;SDS011;49845;47.130;142.766;2022-11-15T02:48:02;11.68;;;4.63;;
63699;SDS011;49845;47.130;142.766;2022-11-15T02:50:48;9.05;;;2.95;;
63699;SDS011;49845;47.130;142.766;2022-11-15T02:53:33;8.88;;;3.15;;
63699;SDS011;49845;47.130;142.766;2022-11-15T02:56:17;6.20;;;3.00;;
63699;SDS011;49845;47.130;142.766;2022-11-15T02:59:05;5.43;;;2.42;;
63699;SDS011;49845;47.130;142.766;2022-11-15T03:02:17;8.10;;;3.97;;
63699;SDS011;49845;47.130;142.766;2022-11-15T03:05:08;15.75;;;6.20;;
63699;SDS011;49845;47.130;142.766;2022-11-15T03:10:51;6.90;;;3.00;;
63699;SDS011;49845;47.130;142.766;2022-11-15T03:13:44;7.40;;;2.88;;
63699;SDS011;49845;47.130;142.766;2022-11-15T03:16:36;5.28;;;2.92;;
63699;SDS011;49845;47.130;142.766;2022-11-15T03:19:21;7.63;;;3.28;;
63699;SDS011;49845;47.130;142.766;2022-11-15T03:22:33;7.78;;;3.13;;
63699;SDS011;49845;47.130;142.766;2022-11-15T03:25:27;6.65;;;3.28;;
63699;SDS011;49845;47.130;142.766;2022-11-15T03:28:18;7.88;;;3.30;;
63699;SDS011;49845;47.130;142.766;2022-11-15T03:31:03;6.75;;;3.17;;
63699;SDS011;49845;47.130;142.766;2022-11-15T03:34:02;6.43;;;3.30;;
63699;SDS011;49845;47.130;142.766;2022-11-15T03:37:05;3.88;;;2.60;;
63699;SDS011;49845;47.130;142.766;2022-11-15T03:40:09;9.45;;;3.83;;
63699;SDS011;49845;47.130;142.766;2022-11-15T03:43:14;6.63;;;2.80;;
63699;SDS011;49845;47.130;142.766;2022-11-15T03:45:58;4.65;;;2.63;;
63699;SDS011;49845;47.130;142.766;2022-11-15T03:48:56;4.70;;;2.33;;
63699;SDS011;49845;47.130;142.766;2022-11-15T03:51:58;4.45;;;2.40;;
63699;SDS011;49845;47.130;142.766;2022-11-15T03:54:39;6.65;;;2.20;;
63699;SDS011;49845;47.130;142.766;2022-11-15T03:57:27;5.90;;;2.90;;
63699;SDS011;49845;47.130;142.766;2022-11-15T04:00:19;5.38;;;2.88;;
63699;SDS011;49845;47.130;142.766;2022-11-15T04:03:14;7.97;;;3.22;;
63699;SDS011;49845;47.130;142.766;2022-11-15T04:05:54;6.95;;;3.25;;
63699;SDS011;49845;47.130;142.766;2022-11-15T04:08:33;7.38;;;3.17;;
63699;SDS011;49845;47.130;142.766;2022-11-15T04:11:19;4.45;;;2.85;;
63699;SDS011;49845;47.130;142.766;2022-11-15T04:13:58;6.13;;;2.50;;
63699;SDS011;49845;47.130;142.766;2022-11-15T04:16:36;3.60;;;2.03;;
63699;SDS011;49845;47.130;142.766;2022-11-15T04:19:21;3.30;;;2.25;;
63699;SDS011;49845;47.130;142.766;2022-11-15T04:22:10;6.22;;;2.40;;
63699;SDS011;49845;47.130;142.766;2022-11-15T04:25:11;4.57;;;2.60;;
63699;SDS011;49845;47.130;142.766;2022-11-15T04:27:55;5.20;;;2.40;;
63699;SDS011;49845;47.130;142.766;2022-11-15T04:30:36;6.63;;;2.47;;
63699;SDS011;49845;47.130;142.766;2022-11-15T04:33:23;4.10;;;2.60;;
63699;SDS011;49845;47.130;142.766;2022-11-15T04:36:20;4.03;;;2.47;;
63699;SDS011;49845;47.130;142.766;2022-11-15T04:39:21;4.68;;;2.45;;
63699;SDS011;49845;47.130;142.766;2022-11-15T04:42:02;5.03;;;2.95;;
63699;SDS011;49845;47.130;142.766;2022-11-15T04:44:38;5.20;;;2.70;;
63699;SDS011;49845;47.130;142.766;2022-11-15T04:47:19;5.45;;;2.92;;
63699;SDS011;49845;47.130;142.766;2022-11-15T04:50:15;7.13;;;3.40;;
63699;SDS011;49845;47.130;142.766;2022-11-15T04:52:55;6.63;;;3.35;;
63699;SDS011;49845;47.130;142.766;2022-11-15T04:55:38;7.35;;;3.08;;
63699;SDS011;49845;47.130;142.766;2022-11-15T04:58:38;6.57;;;3.10;;
63699;SDS011;49845;47.130;142.766;2022-11-15T05:01:24;9.63;;;3.00;;
63699;SDS011;49845;47.130;142.766;2022-11-15T05:04:11;9.80;;;3.10;;
63699;SDS011;49845;47.130;142.766;2022-11-15T05:07:05;10.10;;;3.05;;
63699;SDS011;49845;47.130;142.766;2022-11-15T05:12:52;7.15;;;3.42;;
63699;SDS011;49845;47.130;142.766;2022-11-15T05:15:36;12.25;;;8.82;;
63699;SDS011;49845;47.130;142.766;2022-11-15T05:18:18;11.65;;;10.35;;
63699;SDS011;49845;47.130;142.766;2022-11-15T05:21:03;9.82;;;7.78;;
63699;SDS011;49845;47.130;142.766;2022-11-15T05:24:03;12.88;;;7.82;;
63699;SDS011;49845;47.130;142.766;2022-11-15T05:26:59;8.27;;;6.05;;
63699;SDS011;49845;47.130;142.766;2022-11-15T05:29:46;8.50;;;5.63;;
63699;SDS011;49845;47.130;142.766;2022-11-15T05:32:26;8.93;;;4.80;;
63699;SDS011;49845;47.130;142.766;2022-11-15T05:35:18;4.35;;;3.38;;
63699;SDS011;49845;47.130;142.766;2022-11-15T05:38:19;4.95;;;2.92;;
63699;SDS011;49845;47.130;142.766;2022-11-15T05:41:27;5.32;;;2.60;;
63699;SDS011;49845;47.130;142.766;2022-11-15T05:44:30;4.05;;;2.72;;
63699;SDS011;49845;47.130;142.766;2022-11-15T05:47:14;4.88;;;2.55;;
63699;SDS011;49845;47.130;142.766;2022-11-15T05:50:16;5.00;;;2.35;;
63699;SDS011;49845;47.130;142.766;2022-11-15T05:53:09;4.85;;;2.67;;
63699;SDS011;49845;47.130;142.766;2022-11-15T05:55:59;2.30;;;1.85;;
63699;SDS011;49845;47.130;142.766;2022-11-15T05:58:40;3.17;;;2.40;;
63699;SDS011;49845;47.130;142.766;2022-11-15T06:01:27;4.95;;;2.40;;
63699;SDS011;49845;47.130;142.766;2022-11-15T06:04:12;4.43;;;2.72;;
63699;SDS011;49845;47.130;142.766;2022-11-15T06:06:50;5.55;;;3.03;;
63699;SDS011;49845;47.130;142.766;2022-11-15T06:09:39;5.22;;;3.00;;
63699;SDS011;49845;47.130;142.766;2022-11-15T06:12:34;4.72;;;2.53;;
63699;SDS011;49845;47.130;142.766;2022-11-15T06:15:43;6.13;;;3.72;;
63699;SDS011;49845;47.130;142.766;2022-11-15T06:18:45;6.05;;;2.75;;
63699;SDS011;49845;47.130;142.766;2022-11-15T06:21:22;5.13;;;3.08;;
63699;SDS011;49845;47.130;142.766;2022-11-15T06:23:59;6.10;;;3.65;;
63699;SDS011;49845;47.130;142.766;2022-11-15T06:26:41;6.22;;;4.90;;
63699;SDS011;49845;47.130;142.766;2022-11-15T06:29:26;4.05;;;2.80;;
63699;SDS011;49845;47.130;142.766;2022-11-15T06:32:09;7.55;;;5.60;;
63699;SDS011;49845;47.130;142.766;2022-11-15T06:35:00;8.10;;;4.57;;
63699;SDS011;49845;47.130;142.766;2022-11-15T06:37:39;5.75;;;4.22;;
63699;SDS011;49845;47.130;142.766;2022-11-15T06:40:23;8.73;;;3.83;;
63699;SDS011;49845;47.130;142.766;2022-11-15T06:43:02;5.88;;;3.92;;
63699;SDS011;49845;47.130;142.766;2022-11-15T06:45:41;5.82;;;3.72;;
63699;SDS011;49845;47.130;142.766;2022-11-15T06:48:27;4.53;;;2.85;;
63699;SDS011;49845;47.130;142.766;2022-11-15T06:51:10;7.45;;;3.22;;
63699;SDS011;49845;47.130;142.766;2022-11-15T06:54:00;6.05;;;2.65;;
63699;SDS011;49845;47.130;142.766;2022-11-15T06:56:45;5.47;;;3.30;;
63699;SDS011;49845;47.130;142.766;2022-11-15T06:59:32;9.02;;;3.47;;
63699;SDS011;49845;47.130;142.766;2022-11-15T07:02:11;5.70;;;3.13;;
63699;SDS011;49845;47.130;142.766;2022-11-15T07:04:57;4.95;;;2.58;;
63699;SDS011;49845;47.130;142.766;2022-11-15T07:07:40;4.50;;;2.85;;
63699;SDS011;49845;47.130;142.766;2022-11-15T07:10:27;5.28;;;2.67;;
63699;SDS011;49845;47.130;142.766;2022-11-15T07:13:15;4.55;;;2.17;;
63699;SDS011;49845;47.130;142.766;2022-11-15T07:16:09;2.97;;;2.35;;
63699;SDS011;49845;47.130;142.766;2022-11-15T07:18:54;4.40;;;2.50;;
63699;SDS011;49845;47.130;142.766;2022-11-15T07:21:58;4.30;;;2.60;;
63699;SDS011;49845;47.130;142.766;2022-11-15T07:24:55;6.72;;;2.90;;
63699;SDS011;49845;47.130;142.766;2022-11-15T07:27:54;5.65;;;2.17;;
63699;SDS011;49845;47.130;142.766;2022-11-15T07:30:45;4.20;;;2.20;;
63699;SDS011;49845;47.130;142.766;2022-11-15T07:33:46;4.57;;;2.40;;
63699;SDS011;49845;47.130;142.766;2022-11-15T07:36:34;4.20;;;2.65;;
63699;SDS011;49845;47.130;142.766;2022-11-15T07:43:02;3.60;;;2.28;;
63699;SDS011;49845;47.130;142.766;2022-11-15T07:45:49;3.45;;;2.35;;
63699;SDS011;49845;47.130;142.766;2022-11-15T07:48:35;3.70;;;2.30;;
63699;SDS011;49845;47.130;142.766;2022-11-15T07:51:13;8.32;;;4.07;;
63699;SDS011;49845;47.130;142.766;2022-11-15T07:53:52;15.15;;;6.70;;
63699;SDS011;49845;47.130;142.766;2022-11-15T07:56:30;21.63;;;10.35;;
63699;SDS011;49845;47.130;142.766;2022-11-15T07:59:25;25.65;;;12.32;;
63699;SDS011;49845;47.130;142.766;2022-11-15T08:02:23;27.33;;;13.45;;
63699;SDS011;49845;47.130;142.766;2022-11-15T08:05:16;24.25;;;12.20;;
63699;SDS011;49845;47.130;142.766;2022-11-15T08:07:58;18.45;;;11.18;;
63699;SDS011;49845;47.130;142.766;2022-11-15T08:10:39;10.77;;;5.65;;
63699;SDS011;49845;47.130;142.766;2022-11-15T08:13:19;8.10;;;4.50;;
63699;SDS011;49845;47.130;142.766;2022-11-15T08:16:08;5.68;;;2.20;;
63699;SDS011;49845;47.130;142.766;2022-11-15T08:18:59;3.97;;;2.47;;
63699;SDS011;49845;47.130;142.766;2022-11-15T08:21:38;5.82;;;2.60;;
63699;SDS011;49845;47.130;142.766;2022-11-15T08:24:30;3.78;;;2.45;;
63699;SDS011;49845;47.130;142.766;2022-11-15T08:27:37;4.25;;;2.70;;
63699;SDS011;49845;47.130;142.766;2022-11-15T08:30:25;4.47;;;2.60;;
63699;SDS011;49845;47.130;142.766;2022-11-15T08:33:26;3.72;;;2.22;;
63699;SDS011;49845;47.130;142.766;2022-11-15T08:36:13;8.85;;;4.25;;
63699;SDS011;49845;47.130;142.766;2022-11-15T08:38:49;14.50;;;6.20;;
63699;SDS011;49845;47.130;142.766;2022-11-15T08:41:44;12.57;;;6.93;;
63699;SDS011;49845;47.130;142.766;2022-11-15T08:44:40;25.65;;;11.45;;
63699;SDS011;49845;47.130;142.766;2022-11-15T08:47:23;21.83;;;9.85;;
63699;SDS011;49845;47.130;142.766;2022-11-15T08:50:05;16.05;;;8.52;;
63699;SDS011;49845;47.130;142.766;2022-11-15T08:52:55;18.58;;;8.52;;
63699;SDS011;49845;47.130;142.766;2022-11-15T08:55:48;13.60;;;7.40;;
63699;SDS011;49845;47.130;142.766;2022-11-15T08:58:39;12.90;;;7.50;;
63699;SDS011;49845;47.130;142.766;2022-11-15T09:01:17;16.17;;;7.93;;
63699;SDS011;49845;47.130;142.766;2022-11-15T09:04:07;16.88;;;8.18;;
63699;SDS011;49845;47.130;142.766;2022-11-15T09:07:13;14.75;;;7.63;;
63699;SDS011;49845;47.130;142.766;2022-11-15T09:09:58;17.15;;;9.43;;
63699;SDS011;49845;47.130;142.766;2022-11-15T09:12:53;30.05;;;11.35;;
63699;SDS011;49845;47.130;142.766;2022-11-15T09:15:34;34.15;;;15.25;;
63699;SDS011;49845;47.130;142.766;2022-11-15T09:18:20;31.65;;;15.05;;
63699;SDS011;49845;47.130;142.766;2022-11-15T09:21:06;21.60;;;10.38;;
63699;SDS011;49845;47.130;142.766;2022-11-15T09:23:49;22.20;;;8.43;;
63699;SDS011;49845;47.130;142.766;2022-11-15T09:26:45;30.15;;;12.77;;
63699;SDS011;49845;47.130;142.766;2022-11-15T09:29:35;89.13;;;34.97;;
63699;SDS011;49845;47.130;142.766;2022-11-15T09:32:42;95.40;;;34.15;;
63699;SDS011;49845;47.130;142.766;2022-11-15T09:35:24;82.20;;;31.05;;
63699;SDS011;49845;47.130;142.766;2022-11-15T09:38:11;40.67;;;17.05;;
63699;SDS011;49845;47.130;142.766;2022-11-15T09:47:37;25.60;;;11.85;;
63699;SDS011;49845;47.130;142.766;2022-11-15T09:51:08;26.73;;;11.10;;
63699;SDS011;49845;47.130;142.766;2022-11-15T09:54:03;20.08;;;9.48;;
63699;SDS011;49845;47.130;142.766;2022-11-15T09:57:16;15.10;;;6.78;;
63699;SDS011;49845;47.130;142.766;2022-11-15T10:00:18;8.52;;;5.57;;
63699;SDS011;49845;47.130;142.766;2022-11-15T10:03:22;7.50;;;4.43;;
63699;SDS011;49845;47.130;142.766;2022-11-15T10:06:08;12.25;;;5.03;;
63699;SDS011;49845;47.130;142.766;2022-11-15T10:08:58;8.50;;;4.90;;
63699;SDS011;49845;47.130;142.766;2022-11-15T10:12:01;9.97;;;5.03;;
63699;SDS011;49845;47.130;142.766;2022-11-15T10:14:54;12.35;;;6.20;;
63699;SDS011;49845;47.130;142.766;2022-11-15T10:17:43;26.10;;;10.93;;
63699;SDS011;49845;47.130;142.766;2022-11-15T10:23:54;31.08;;;10.77;;
63699;SDS011;49845;47.130;142.766;2022-11-15T10:27:07;20.83;;;10.93;;
63699;SDS011;49845;47.130;142.766;2022-11-15T10:30:11;16.02;;;7.70;;
63699;SDS011;49845;47.130;142.766;2022-11-15T10:32:56;19.05;;;8.38;;
63699;SDS011;49845;47.130;142.766;2022-11-15T10:39:02;43.67;;;18.77;;
63699;SDS011;49845;47.130;142.766;2022-11-15T10:41:55;27.33;;;12.32;;
63699;SDS011;49845;47.130;142.766;2022-11-15T10:44:59;19.80;;;10.35;;
63699;SDS011;49845;47.130;142.766;2022-11-15T10:54:28;16.17;;;8.32;;
63699;SDS011;49845;47.130;142.766;2022-11-15T11:00:29;35.00;;;12.95;;
63699;SDS011;49845;47.130;142.766;2022-11-15T11:03:37;81.00;;;27.00;;
63699;SDS011;49845;47.130;142.766;2022-11-15T11:06:30;51.65;;;18.23;;
63699;SDS011;49845;47.130;142.766;2022-11-15T11:09:39;20.65;;;8.07;;
63699;SDS011;49845;47.130;142.766;2022-11-15T11:13:27;18.98;;;8.23;;
63699;SDS011;49845;47.130;142.766;2022-11-15T11:19:49;14.05;;;4.97;;
63699;SDS011;49845;47.130;142.766;2022-11-15T11:28:44;81.35;;;25.13;;
63699;SDS011;49845;47.130;142.766;2022-11-15T11:31:40;17.17;;;6.72;;
63699;SDS011;49845;47.130;142.766;2022-11-15T11:34:43;8.75;;;4.15;;
63699;SDS011;49845;47.130;142.766;2022-11-15T11:37:54;14.35;;;5.65;;
63699;SDS011;49845;47.130;142.766;2022-11-15T11:40:57;153.88;;;37.05;;
63699;SDS011;49845;47.130;142.766;2022-11-15T11:43:59;141.30;;;45.72;;
63699;SDS011;49845;47.130;142.766;2022-11-15T11:47:00;50.47;;;19.33;;
63699;SDS011;49845;47.130;142.766;2022-11-15T11:49:54;83.68;;;34.05;;
63699;SDS011;49845;47.130;142.766;2022-11-15T11:52:43;84.65;;;34.38;;
63699;SDS011;49845;47.130;142.766;2022-11-15T11:55:36;60.53;;;26.25;;
63699;SDS011;49845;47.130;142.766;2022-11-15T11:58:16;46.10;;;21.90;;
63699;SDS011;49845;47.130;142.766;2022-11-15T12:01:17;22.27;;;12.35;;
63699;SDS011;49845;47.130;142.766;2022-11-15T12:04:47;8.55;;;4.90;;
63699;SDS011;49845;47.130;142.766;2022-11-15T12:07:52;5.82;;;2.75;;
63699;SDS011;49845;47.130;142.766;2022-11-15T12:10:33;2.90;;;2.42;;
63699;SDS011;49845;47.130;142.766;2022-11-15T12:13:28;4.30;;;2.92;;
63699;SDS011;49845;47.130;142.766;2022-11-15T12:19:28;7.85;;;4.88;;
63699;SDS011;49845;47.130;142.766;2022-11-15T12:22:21;6.88;;;4.20;;
63699;SDS011;49845;47.130;142.766;2022-11-15T12:25:23;9.38;;;4.35;;
63699;SDS011;49845;47.130;142.766;2022-11-15T12:28:13;24.75;;;11.32;;
63699;SDS011;49845;47.130;142.766;2022-11-15T12:31:10;19.27;;;9.98;;
63699;SDS011;49845;47.130;142.766;2022-11-15T12:34:28;18.58;;;8.50;;
63699;SDS011;49845;47.130;142.766;2022-11-15T12:40:37;15.43;;;7.45;;
63699;SDS011;49845;47.130;142.766;2022-11-15T12:43:51;14.30;;;7.07;;
63699;SDS011;49845;47.130;142.766;2022-11-15T12:49:54;21.67;;;8.82;;
63699;SDS011;49845;47.130;142.766;2022-11-15T12:52:43;23.60;;;9.45;;
63699;SDS011;49845;47.130;142.766;2022-11-15T12:56:21;21.23;;;9.07;;
63699;SDS011;49845;47.130;142.766;2022-11-15T12:59:38;14.45;;;7.95;;
63699;SDS011;49845;47.130;142.766;2022-11-15T13:02:43;17.13;;;7.15;;
63699;SDS011;49845;47.130;142.766;2022-11-15T13:05:55;15.45;;;8.50;;
63699;SDS011;49845;47.130;142.766;2022-11-15T13:08:49;17.80;;;8.55;;
63699;SDS011;49845;47.130;142.766;2022-11-15T13:11:47;11.35;;;6.68;;
63699;SDS011;49845;47.130;142.766;2022-11-15T13:14:44;13.38;;;6.78;;
63699;SDS011;49845;47.130;142.766;2022-11-15T13:17:34;13.38;;;6.47;;
63699;SDS011;49845;47.130;142.766;2022-11-15T13:20:27;10.57;;;4.97;;
63699;SDS011;49845;47.130;142.766;2022-11-15T13:23:17;14.98;;;5.78;;
63699;SDS011;49845;47.130;142.766;2022-11-15T13:26:10;38.22;;;12.23;;
63699;SDS011;49845;47.130;142.766;2022-11-15T13:28:57;45.85;;;14.50;;
63699;SDS011;49845;47.130;142.766;2022-11-15T13:31:42;36.20;;;12.77;;
63699;SDS011;49845;47.130;142.766;2022-11-15T13:34:46;43.70;;;13.80;;
63699;SDS011;49845;47.130;142.766;2022-11-15T13:37:44;33.72;;;11.98;;
63699;SDS011;49845;47.130;142.766;2022-11-15T13:40:28;36.17;;;13.95;;
63699;SDS011;49845;47.130;142.766;2022-11-15T13:43:26;29.80;;;11.73;;
63699;SDS011;49845;47.130;142.766;2022-11-15T13:46:12;34.60;;;11.95;;
63699;SDS011;49845;47.130;142.766;2022-11-15T13:48:58;33.10;;;13.10;;
63699;SDS011;49845;47.130;142.766;2022-11-15T13:51:41;32.40;;;11.15;;
63699;SDS011;49845;47.130;142.766;2022-11-15T13:54:33;21.17;;;7.82;;
63699;SDS011;49845;47.130;142.766;2022-11-15T13:57:25;15.93;;;6.70;;
63699;SDS011;49845;47.130;142.766;2022-11-15T14:00:33;16.15;;;6.93;;
63699;SDS011;49845;47.130;142.766;2022-11-15T14:03:17;11.45;;;5.60;;
63699;SDS011;49845;47.130;142.766;2022-11-15T14:06:23;18.13;;;7.70;;
63699;SDS011;49845;47.130;142.766;2022-11-15T14:12:32;15.75;;;7.05;;
63699;SDS011;49845;47.130;142.766;2022-11-15T14:15:32;12.50;;;6.13;;
63699;SDS011;49845;47.130;142.766;2022-11-15T14:21:45;10.45;;;5.45;;
63699;SDS011;49845;47.130;142.766;2022-11-15T14:25:05;7.47;;;3.85;;
63699;SDS011;49845;47.130;142.766;2022-11-15T14:28:10;5.57;;;3.20;;
63699;SDS011;49845;47.130;142.766;2022-11-15T14:31:11;4.47;;;2.85;;
63699;SDS011;49845;47.130;142.766;2022-11-15T14:33:55;4.50;;;2.25;;
63699;SDS011;49845;47.130;142.766;2022-11-15T14:36:45;4.82;;;3.60;;
63699;SDS011;49845;47.130;142.766;2022-11-15T14:39:25;7.05;;;4.35;;
63699;SDS011;49845;47.130;142.766;2022-11-15T14:42:14;11.00;;;5.55;;
63699;SDS011;49845;47.130;142.766;2022-11-15T14:44:55;12.20;;;6.85;;
63699;SDS011;49845;47.130;142.766;2022-11-15T14:47:33;13.18;;;6.75;;
63699;SDS011;49845;47.130;142.766;2022-11-15T14:50:11;17.00;;;7.82;;
63699;SDS011;49845;47.130;142.766;2022-11-15T14:52:57;13.70;;;7.18;;
63699;SDS011;49845;47.130;142.766;2022-11-15T14:55:36;16.27;;;7.88;;
63699;SDS011;49845;47.130;142.766;2022-11-15T14:58:27;13.85;;;7.13;;
63699;SDS011;49845;47.130;142.766;2022-11-15T15:01:17;12.57;;;6.88;;
63699;SDS011;49845;47.130;142.766;2022-11-15T15:04:06;11.75;;;6.38;;
63699;SDS011;49845;47.130;142.766;2022-11-15T15:06:54;15.52;;;6.85;;
63699;SDS011;49845;47.130;142.766;2022-11-15T15:09:43;12.70;;;6.20;;
63699;SDS011;49845;47.130;142.766;2022-11-15T15:12:52;8.25;;;3.70;;
63699;SDS011;49845;47.130;142.766;2022-11-15T15:15:37;6.55;;;3.50;;
63699;SDS011;49845;47.130;142.766;2022-11-15T15:18:35;3.58;;;2.83;;
63699;SDS011;49845;47.130;142.766;2022-11-15T15:21:24;4.15;;;2.50;;
63699;SDS011;49845;47.130;142.766;2022-11-15T15:24:16;32.88;;;8.55;;
63699;SDS011;49845;47.130;142.766;2022-11-15T15:27:09;44.55;;;10.80;;
63699;SDS011;49845;47.130;142.766;2022-11-15T15:29:51;17.92;;;5.07;;
63699;SDS011;49845;47.130;142.766;2022-11-15T15:32:34;7.97;;;3.40;;
63699;SDS011;49845;47.130;142.766;2022-11-15T15:35:27;4.68;;;3.30;;
63699;SDS011;49845;47.130;142.766;2022-11-15T15:38:15;4.80;;;3.00;;
63699;SDS011;49845;47.130;142.766;2022-11-15T15:41:01;6.18;;;3.63;;
63699;SDS011;49845;47.130;142.766;2022-11-15T15:43:42;6.90;;;3.85;;
63699;SDS011;49845;47.130;142.766;2022-11-15T15:46:20;8.15;;;4.20;;
63699;SDS011;49845;47.130;142.766;2022-11-15T15:49:07;8.40;;;4.72;;
63699;SDS011;49845;47.130;142.766;2022-11-15T15:51:54;28.48;;;8.00;;
63699;SDS011;49845;47.130;142.766;2022-11-15T15:54:57;35.53;;;9.00;;
63699;SDS011;49845;47.130;142.766;2022-11-15T15:57:51;33.15;;;8.93;;
63699;SDS011;49845;47.130;142.766;2022-11-15T16:00:46;19.98;;;6.00;;
63699;SDS011;49845;47.130;142.766;2022-11-15T16:03:32;10.63;;;4.53;;
63699;SDS011;49845;47.130;142.766;2022-11-15T16:06:25;33.63;;;8.57;;
63699;SDS011;49845;47.130;142.766;2022-11-15T16:12:31;14.02;;;5.28;;
63699;SDS011;49845;47.130;142.766;2022-11-15T16:15:20;19.65;;;7.07;;
63699;SDS011;49845;47.130;142.766;2022-11-15T16:18:08;18.40;;;6.72;;
63699;SDS011;49845;47.130;142.766;2022-11-15T16:20:53;22.92;;;7.00;;
63699;SDS011;49845;47.130;142.766;2022-11-15T16:23:30;20.02;;;6.10;;
63699;SDS011;49845;47.130;142.766;2022-11-15T16:26:17;19.95;;;5.72;;
63699;SDS011;49845;47.130;142.766;2022-11-15T16:28:54;15.20;;;6.32;;
63699;SDS011;49845;47.130;142.766;2022-11-15T16:31:33;65.07;;;16.10;;
63699;SDS011;49845;47.130;142.766;2022-11-15T16:34:28;71.97;;;19.90;;
63699;SDS011;49845;47.130;142.766;2022-11-15T16:37:12;50.30;;;16.60;;
63699;SDS011;49845;47.130;142.766;2022-11-15T16:40:10;28.50;;;13.32;;
63699;SDS011;49845;47.130;142.766;2022-11-15T16:43:25;8.75;;;5.15;;
63699;SDS011;49845;47.130;142.766;2022-11-15T16:46:30;11.30;;;5.80;;
63699;SDS011;49845;47.130;142.766;2022-11-15T16:49:18;5.03;;;3.08;;
63699;SDS011;49845;47.130;142.766;2022-11-15T16:51:57;2.88;;;2.28;;
63699;SDS011;49845;47.130;142.766;2022-11-15T16:54:54;2.22;;;1.90;;
63699;SDS011;49845;47.130;142.766;2022-11-15T16:57:28;2.33;;;2.00;;
63699;SDS011;49845;47.130;142.766;2022-11-15T17:00:17;3.13;;;2.30;;
63699;SDS011;49845;47.130;142.766;2022-11-15T17:03:09;6.18;;;2.88;;
63699;SDS011;49845;47.130;142.766;2022-11-15T17:05:57;4.53;;;3.00;;
63699;SDS011;49845;47.130;142.766;2022-11-15T17:09:17;4.53;;;2.53;;
63699;SDS011;49845;47.130;142.766;2022-11-15T17:12:10;10.52;;;3.92;;
63699;SDS011;49845;47.130;142.766;2022-11-15T17:14:46;4.97;;;2.78;;
63699;SDS011;49845;47.130;142.766;2022-11-15T17:17:31;4.30;;;2.70;;
63699;SDS011;49845;47.130;142.766;2022-11-15T17:20:12;5.78;;;2.75;;
63699;SDS011;49845;47.130;142.766;2022-11-15T17:23:01;2.20;;;2.00;;
63699;SDS011;49845;47.130;142.766;2022-11-15T17:26:02;2.88;;;2.10;;
63699;SDS011;49845;47.130;142.766;2022-11-15T17:29:00;3.25;;;2.00;;
63699;SDS011;49845;47.130;142.766;2022-11-15T17:31:39;2.92;;;2.20;;
63699;SDS011;49845;47.130;142.766;2022-11-15T17:34:25;2.38;;;2.17;;
63699;SDS011;49845;47.130;142.766;2022-11-15T17:37:04;3.75;;;2.60;;
63699;SDS011;49845;47.130;142.766;2022-11-15T17:40:01;2.13;;;1.80;;
63699;SDS011;49845;47.130;142.766;2022-11-15T17:43:06;4.97;;;2.90;;